Time;durP1;ratioP1;P1;durP2;ratioP2;P2;SDS_P1;SDS_P2;PMS_P1;PMS_P2;Temp;Humidity;BMP_temperature;BMP_pressure;BME280_temperature;BME280_humidity;BME280_pressure;Samples;Min_cycle;Max_cycle;Signal;HPM_P1;HPM_P2
2022/06/17 00:00:40;;;;;;;12.05;7.58;;;26.20;99.90;;;;;;1761333;80;21655;-79
2022/06/17 00:03:11;;;;;;;15.35;7.72;;;26.20;99.90;;;;;;1773369;79;21891;-72
2022/06/17 00:05:43;;;;;;;11.15;7.78;;;26.20;99.90;;;;;;1781394;79;21174;-71
2022/06/17 00:08:16;;;;;;;12.23;7.67;;;26.20;99.90;;;;;;1780358;79;21186;-73
2022/06/17 00:10:48;;;;;;;12.10;7.00;;;26.20;99.90;;;;;;1781069;79;21119;-72
2022/06/17 00:13:20;;;;;;;10.63;7.12;;;26.20;99.90;;;;;;1793507;79;21151;-72
2022/06/17 00:15:51;;;;;;;12.45;7.78;;;26.20;99.90;;;;;;1783351;79;21224;-72
2022/06/17 00:18:24;;;;;;;12.95;8.18;;;26.30;99.90;;;;;;1788490;79;21194;-72
2022/06/17 00:20:56;;;;;;;14.55;8.03;;;26.30;99.90;;;;;;1781627;80;21618;-72
2022/06/17 00:23:28;;;;;;;11.60;8.08;;;26.30;99.90;;;;;;1771035;80;21175;-72
2022/06/17 00:25:59;;;;;;;12.07;8.73;;;26.30;99.90;;;;;;1784331;80;21634;-73
2022/06/17 00:28:30;;;;;;;10.53;7.90;;;26.40;99.90;;;;;;1782326;79;21629;-72
2022/06/17 00:31:01;;;;;;;13.78;8.80;;;26.40;99.90;;;;;;1780976;79;21147;-73
2022/06/17 00:33:32;;;;;;;12.75;8.20;;;26.50;99.90;;;;;;1737831;81;21213;-72
2022/06/17 00:36:04;;;;;;;10.38;7.95;;;26.60;99.90;;;;;;1752129;80;22259;-72
2022/06/17 00:38:36;;;;;;;12.53;8.40;;;26.70;99.90;;;;;;1787761;79;21658;-73
2022/06/17 00:41:09;;;;;;;13.62;8.18;;;26.70;99.90;;;;;;1791183;80;21232;-74
2022/06/17 00:43:42;;;;;;;10.48;7.22;;;26.80;99.90;;;;;;1795154;79;21233;-73
2022/06/17 00:46:16;;;;;;;12.75;7.95;;;26.80;99.90;;;;;;1784672;79;21167;-72
2022/06/17 00:48:49;;;;;;;12.00;7.30;;;26.90;99.90;;;;;;1762741;80;21113;-72
2022/06/17 00:51:23;;;;;;;13.40;7.40;;;26.90;99.90;;;;;;1796963;79;21158;-70
2022/06/17 00:53:58;;;;;;;14.10;7.80;;;26.90;99.90;;;;;;1785203;79;21205;-71
2022/06/17 00:56:31;;;;;;;11.83;7.28;;;27.00;99.90;;;;;;1816951;78;21205;-72
2022/06/17 00:59:04;;;;;;;10.40;7.25;;;27.10;99.90;;;;;;1812223;79;21643;-74
2022/06/17 01:01:38;;;;;;;12.78;7.60;;;27.10;99.90;;;;;;1796858;79;21149;-73
2022/06/17 01:04:10;;;;;;;14.07;8.18;;;27.20;99.90;;;;;;1788399;79;21584;-74
2022/06/17 01:06:44;;;;;;;12.23;7.67;;;27.20;99.90;;;;;;1746370;80;21277;-73
2022/06/17 01:11:50;;;;;;;10.55;7.72;;;27.30;99.90;;;;;;1789793;79;21256;-72
2022/06/17 01:14:23;;;;;;;10.25;8.10;;;27.30;99.90;;;;;;1787003;79;21567;-72
2022/06/17 01:16:58;;;;;;;12.25;7.25;;;27.40;99.90;;;;;;1794500;79;21219;-73
2022/06/17 01:19:32;;;;;;;12.20;8.03;;;27.50;99.90;;;;;;1788012;79;21167;-74
2022/06/17 01:22:05;;;;;;;12.23;7.78;;;27.60;99.90;;;;;;1785464;79;21201;-72
2022/06/17 01:24:41;;;;;;;10.82;8.03;;;27.70;99.90;;;;;;1786836;79;21148;-73
2022/06/17 01:27:15;;;;;;;9.53;7.12;;;27.70;99.90;;;;;;1755577;79;21707;-73
2022/06/17 01:29:46;;;;;;;12.45;7.25;;;27.80;99.90;;;;;;1760495;80;21645;-73
2022/06/17 01:32:19;;;;;;;14.83;8.58;;;27.90;99.90;;;;;;1756724;80;21263;-73
2022/06/17 01:34:51;;;;;;;11.80;8.58;;;28.00;99.60;;;;;;1758389;80;21224;-72
2022/06/17 01:37:24;;;;;;;12.25;7.40;;;28.10;99.60;;;;;;1759920;80;21241;-72
2022/06/17 01:39:58;;;;;;;12.88;7.83;;;28.20;99.60;;;;;;1743624;80;21485;-71
2022/06/17 01:42:30;;;;;;;12.85;7.58;;;28.30;99.50;;;;;;1732141;81;21599;-71
2022/06/17 01:45:01;;;;;;;8.50;6.80;;;28.40;99.80;;;;;;1715409;83;21174;-72
2022/06/17 01:47:34;;;;;;;10.32;7.42;;;28.60;99.20;;;;;;1756440;80;21591;-73
2022/06/17 01:50:09;;;;;;;10.15;7.37;;;28.70;99.00;;;;;;1750888;80;21202;-71
2022/06/17 01:52:45;;;;;;;9.80;7.03;;;28.80;98.50;;;;;;1746641;80;21678;-72
2022/06/17 01:55:20;;;;;;;10.32;6.65;;;28.90;97.80;;;;;;1748432;81;21184;-69
2022/06/17 01:57:59;;;;;;;9.58;6.53;;;29.00;97.70;;;;;;1752507;80;21218;-72
2022/06/17 02:00:29;;;;;;;13.90;8.35;;;29.20;97.50;;;;;;1751079;80;21216;-71
2022/06/17 02:03:02;;;;;;;10.58;7.28;;;29.30;97.50;;;;;;1750052;80;21179;-71
2022/06/17 02:05:36;;;;;;;9.93;6.70;;;29.40;97.30;;;;;;1753707;80;21170;-73
2022/06/17 02:08:10;;;;;;;14.15;8.50;;;29.50;96.70;;;;;;1720153;82;21721;-70
2022/06/17 02:11:01;;;;;;;10.98;6.92;;;29.60;96.70;;;;;;1799851;79;21174;-71
2022/06/17 02:13:37;;;;;;;11.60;7.17;;;29.70;96.50;;;;;;1791293;79;21194;-72
2022/06/17 02:16:09;;;;;;;59.00;10.75;;;29.80;96.70;;;;;;1783220;79;21220;-71
2022/06/17 02:18:43;;;;;;;14.40;7.03;;;29.90;96.60;;;;;;1786324;79;21713;-72
2022/06/17 02:21:16;;;;;;;10.38;7.50;;;30.00;96.20;;;;;;1788620;79;21219;-72
2022/06/17 02:23:47;;;;;;;9.05;6.70;;;30.10;95.60;;;;;;1786824;79;21205;-72
2022/06/17 02:26:18;;;;;;;11.78;7.53;;;30.20;95.90;;;;;;1794811;78;21672;-72
2022/06/17 02:28:50;;;;;;;10.10;6.65;;;30.20;96.00;;;;;;1829323;77;21142;-71
2022/06/17 02:31:22;;;;;;;9.33;6.80;;;30.30;95.90;;;;;;1840767;77;21208;-72
2022/06/17 02:33:53;;;;;;;10.60;6.78;;;30.40;95.20;;;;;;1839285;76;21648;-73
2022/06/17 02:36:27;;;;;;;9.78;6.47;;;30.50;95.40;;;;;;1842338;76;21195;-72
2022/06/17 02:39:00;;;;;;;8.80;6.22;;;30.50;95.00;;;;;;1850054;76;21167;-72
2022/06/17 02:41:31;;;;;;;8.80;6.08;;;30.60;94.50;;;;;;1842144;76;21242;-71
2022/06/17 02:44:05;;;;;;;10.05;6.22;;;30.70;94.40;;;;;;1840849;76;21186;-72
2022/06/17 02:46:38;;;;;;;13.03;7.10;;;30.80;94.40;;;;;;1845796;76;21074;-72
2022/06/17 02:49:12;;;;;;;10.03;6.53;;;30.90;93.50;;;;;;1833835;76;21691;-72
2022/06/17 02:51:45;;;;;;;9.53;6.67;;;31.00;93.60;;;;;;1726702;80;21307;-72
2022/06/17 02:54:19;;;;;;;7.00;5.87;;;31.00;93.70;;;;;;1743388;82;21292;-72
2022/06/17 02:56:52;;;;;;;10.03;6.05;;;31.10;94.80;;;;;;1737944;82;21213;-71
2022/06/17 02:59:25;;;;;;;12.45;6.90;;;31.20;93.90;;;;;;1753437;80;21772;-71
2022/06/17 03:01:59;;;;;;;10.53;6.35;;;31.30;93.40;;;;;;1741025;81;21833;-71
2022/06/17 03:04:32;;;;;;;8.78;6.67;;;31.40;93.50;;;;;;1719042;82;21788;-71
2022/06/17 03:07:03;;;;;;;11.18;6.97;;;31.40;93.40;;;;;;1757425;80;21231;-72
2022/06/17 03:09:36;;;;;;;8.50;6.17;;;31.50;93.70;;;;;;1746442;80;21203;-71
2022/06/17 03:12:09;;;;;;;10.40;6.90;;;31.60;92.70;;;;;;1745299;80;21300;-72
2022/06/17 03:14:43;;;;;;;9.33;6.20;;;31.60;92.70;;;;;;1735485;81;22051;-72
2022/06/17 03:17:17;;;;;;;10.08;6.62;;;31.70;92.40;;;;;;1733741;82;21304;-73
2022/06/17 03:19:49;;;;;;;10.63;5.62;;;31.70;92.50;;;;;;1739467;81;21657;-73
2022/06/17 03:22:20;;;;;;;9.33;6.53;;;31.70;92.70;;;;;;1760018;78;21239;-72
2022/06/17 03:24:54;;;;;;;10.32;6.45;;;31.80;92.20;;;;;;1797341;79;21155;-73
2022/06/17 03:27:27;;;;;;;8.65;5.80;;;31.80;91.80;;;;;;1792591;79;21561;-73
2022/06/17 03:30:01;;;;;;;8.98;5.87;;;31.90;91.60;;;;;;1794355;79;21147;-73
2022/06/17 03:32:34;;;;;;;8.63;5.67;;;31.90;91.20;;;;;;1807320;78;21158;-72
2022/06/17 03:35:06;;;;;;;10.05;6.00;;;32.00;91.00;;;;;;1800192;78;21692;-72
2022/06/17 03:37:39;;;;;;;9.23;6.22;;;32.00;91.30;;;;;;1824831;78;21155;-72
2022/06/17 03:40:13;;;;;;;8.08;5.55;;;32.10;92.10;;;;;;1791723;79;21168;-73
2022/06/17 03:42:46;;;;;;;8.38;5.40;;;32.20;91.40;;;;;;1793039;79;21884;-72
2022/06/17 03:45:19;;;;;;;7.72;5.60;;;32.20;91.10;;;;;;1790972;79;21188;-72
2022/06/17 03:47:51;;;;;;;9.50;5.92;;;32.30;90.80;;;;;;1788247;79;21180;-72
2022/06/17 03:50:24;;;;;;;10.03;5.28;;;32.40;90.80;;;;;;1795042;78;21203;-73
2022/06/17 03:52:56;;;;;;;7.75;5.33;;;32.40;90.20;;;;;;1815379;77;21249;-73
2022/06/17 03:55:28;;;;;;;9.45;5.58;;;32.40;90.00;;;;;;1815761;77;21163;-73
2022/06/17 03:58:02;;;;;;;7.28;5.12;;;32.50;89.40;;;;;;1813287;77;21615;-73
2022/06/17 04:00:35;;;;;;;9.58;5.87;;;32.60;88.90;;;;;;1818335;77;21143;-73
2022/06/17 04:03:08;;;;;;;9.98;5.90;;;32.60;89.60;;;;;;1821137;77;21199;-72
2022/06/17 04:05:41;;;;;;;10.05;6.12;;;32.60;89.60;;;;;;1805571;77;21168;-72
2022/06/17 04:08:13;;;;;;;12.50;6.15;;;32.80;88.70;;;;;;1803243;78;21156;-72
2022/06/17 04:10:44;;;;;;;6.47;5.17;;;32.90;88.30;;;;;;1818256;77;21222;-71
2022/06/17 04:13:17;;;;;;;8.13;5.45;;;32.90;86.50;;;;;;1809026;78;21082;-72
2022/06/17 04:15:51;;;;;;;9.05;5.03;;;33.00;87.00;;;;;;1813683;77;21643;-72
2022/06/17 04:18:22;;;;;;;7.08;4.92;;;33.10;87.00;;;;;;1805177;78;21145;-71
2022/06/17 04:20:56;;;;;;;8.50;5.95;;;33.00;85.30;;;;;;1799568;78;21164;-71
2022/06/17 04:23:29;;;;;;;10.00;5.65;;;33.00;86.00;;;;;;1789619;78;21286;-72
2022/06/17 04:26:02;;;;;;;11.78;5.30;;;33.00;85.30;;;;;;1805034;79;21231;-71
2022/06/17 04:28:36;;;;;;;8.28;5.92;;;33.00;86.20;;;;;;1829185;77;21569;-71
2022/06/17 04:31:09;;;;;;;8.85;6.17;;;33.10;85.30;;;;;;1816892;78;21231;-72
2022/06/17 04:33:41;;;;;;;9.95;6.42;;;33.10;87.20;;;;;;1805457;77;21149;-72
2022/06/17 04:36:14;;;;;;;9.58;6.05;;;33.20;86.00;;;;;;1794577;79;21673;-72
2022/06/17 04:38:48;;;;;;;10.00;6.08;;;33.20;86.80;;;;;;1799233;79;21588;-70
2022/06/17 04:41:22;;;;;;;8.00;5.53;;;33.30;85.30;;;;;;1826080;78;21610;-72
2022/06/17 04:43:56;;;;;;;9.33;5.92;;;33.30;85.10;;;;;;1822610;78;21146;-72
2022/06/17 04:46:27;;;;;;;8.40;5.47;;;33.40;85.80;;;;;;1804874;78;21192;-71
2022/06/17 04:49:00;;;;;;;7.97;5.55;;;33.40;87.50;;;;;;1830164;77;21784;-71
2022/06/17 04:51:32;;;;;;;8.80;6.03;;;33.50;87.20;;;;;;1810857;78;21272;-71
2022/06/17 04:54:05;;;;;;;7.67;6.00;;;33.50;86.30;;;;;;1794694;79;21152;-72
2022/06/17 04:56:38;;;;;;;13.15;6.35;;;33.50;86.90;;;;;;1793605;79;21194;-71
2022/06/17 04:59:12;;;;;;;9.90;5.65;;;33.60;86.90;;;;;;1816413;77;21156;-72
2022/06/17 05:01:43;;;;;;;10.08;6.17;;;33.60;84.80;;;;;;1819068;77;21192;-73
2022/06/17 05:04:15;;;;;;;9.45;5.08;;;33.60;83.90;;;;;;1822756;77;21202;-71
2022/06/17 05:06:46;;;;;;;8.15;5.83;;;33.40;86.30;;;;;;1805539;79;21219;-70
2022/06/17 05:09:22;;;;;;;8.85;5.47;;;33.40;87.20;;;;;;1795627;78;21139;-71
2022/06/17 05:11:56;;;;;;;6.75;5.60;;;33.40;87.10;;;;;;1797968;78;21159;-73
2022/06/17 05:14:30;;;;;;;8.93;5.17;;;33.50;85.50;;;;;;1790678;78;21198;-74
2022/06/17 05:17:00;;;;;;;9.00;6.05;;;33.60;85.40;;;;;;1798868;78;21225;-73
2022/06/17 05:19:32;;;;;;;9.48;5.75;;;33.60;85.80;;;;;;1780808;79;21589;-71
2022/06/17 05:22:05;;;;;;;5.72;4.97;;;33.60;84.70;;;;;;1794643;78;21183;-71
2022/06/17 05:24:36;;;;;;;8.45;5.10;;;33.70;82.60;;;;;;1812426;78;21258;-73
2022/06/17 05:27:08;;;;;;;8.20;5.20;;;33.70;83.30;;;;;;1776513;79;21125;-71
2022/06/17 05:29:39;;;;;;;6.35;4.70;;;33.70;81.90;;;;;;1802253;78;21546;-72
2022/06/17 05:32:12;;;;;;;7.95;5.12;;;33.80;80.80;;;;;;1796317;79;21665;-72
2022/06/17 05:34:44;;;;;;;7.60;5.55;;;33.80;83.00;;;;;;1814282;77;21123;-71
2022/06/17 05:37:16;;;;;;;9.25;5.25;;;33.80;81.20;;;;;;1804047;77;21622;-73
2022/06/17 05:39:47;;;;;;;8.70;5.05;;;33.70;82.90;;;;;;1809700;77;21230;-73
2022/06/17 05:42:18;;;;;;;6.30;4.65;;;33.70;83.80;;;;;;1818411;78;21086;-74
2022/06/17 05:44:49;;;;;;;13.58;6.42;;;33.70;81.90;;;;;;1806035;77;21651;-74
2022/06/17 05:47:20;;;;;;;11.65;10.43;;;33.70;83.00;;;;;;1819250;77;21708;-72
2022/06/17 05:49:51;;;;;;;8.73;5.53;;;33.70;82.10;;;;;;1797720;79;21172;-74
2022/06/17 05:52:22;;;;;;;9.85;5.65;;;33.70;82.00;;;;;;1834171;77;21302;-71
2022/06/17 05:54:55;;;;;;;8.00;5.30;;;33.70;81.20;;;;;;1806618;79;21226;-73
2022/06/17 05:57:26;;;;;;;6.85;4.40;;;33.70;81.50;;;;;;1811713;78;21164;-72
2022/06/17 05:59:57;;;;;;;7.42;4.78;;;33.80;82.00;;;;;;1793263;79;21160;-71
2022/06/17 06:02:29;;;;;;;9.13;5.35;;;33.70;81.80;;;;;;1852823;77;21179;-74
2022/06/17 06:05:00;;;;;;;5.58;4.30;;;33.80;82.40;;;;;;1841544;77;21112;-72
2022/06/17 06:07:31;;;;;;;5.70;4.67;;;33.70;80.20;;;;;;1797138;78;21106;-74
2022/06/17 06:10:02;;;;;;;7.33;4.95;;;33.80;80.50;;;;;;1797702;78;21545;-73
2022/06/17 06:15:05;;;;;;;6.20;5.15;;;33.90;83.00;;;;;;1838727;77;21605;-73
2022/06/17 06:17:38;;;;;;;8.40;4.58;;;34.00;83.00;;;;;;1823508;77;21261;-72
2022/06/17 06:20:10;;;;;;;8.15;5.08;;;34.00;83.00;;;;;;1820527;77;22046;-74
2022/06/17 06:22:41;;;;;;;6.35;4.67;;;34.00;83.00;;;;;;1829210;77;21174;-74
2022/06/17 06:25:14;;;;;;;7.55;5.70;;;33.90;82.00;;;;;;1826511;77;21141;-72
2022/06/17 06:27:45;;;;;;;6.70;4.90;;;33.80;82.80;;;;;;1829176;77;21658;-73
2022/06/17 06:30:19;;;;;;;5.90;3.92;;;33.80;81.40;;;;;;1802575;78;21812;-72
2022/06/17 06:32:52;;;;;;;8.00;4.08;;;33.80;79.70;;;;;;1788066;78;21285;-73
2022/06/17 06:35:25;;;;;;;7.25;3.85;;;33.80;79.60;;;;;;1823218;78;21160;-72
2022/06/17 06:37:57;;;;;;;8.08;3.98;;;33.80;79.80;;;;;;1816901;78;21227;-72
2022/06/17 06:40:28;;;;;;;4.33;3.60;;;33.90;79.80;;;;;;1819347;78;21223;-72
2022/06/17 06:43:00;;;;;;;6.95;4.45;;;33.90;79.20;;;;;;1831633;77;22012;-74
2022/06/17 06:45:33;;;;;;;6.10;4.05;;;33.90;78.70;;;;;;1826086;77;21139;-73
2022/06/17 06:48:06;;;;;;;4.53;2.70;;;33.90;78.50;;;;;;1835125;77;21183;-74
2022/06/17 06:50:38;;;;;;;4.00;2.92;;;33.90;75.00;;;;;;1807243;77;22115;-73
2022/06/17 06:53:09;;;;;;;6.87;3.65;;;34.00;73.40;;;;;;1788231;78;21213;-74
2022/06/17 06:55:41;;;;;;;6.80;3.30;;;34.00;75.10;;;;;;1805678;78;21162;-73
2022/06/17 06:58:20;;;;;;;5.25;3.30;;;34.00;74.70;;;;;;1757503;80;21233;-75
2022/06/17 07:00:54;;;;;;;7.60;3.58;;;34.00;74.90;;;;;;1777706;80;21628;-72
2022/06/17 07:03:27;;;;;;;5.17;3.50;;;34.00;74.20;;;;;;1806039;78;21205;-73
2022/06/17 07:06:01;;;;;;;6.58;3.95;;;34.00;74.50;;;;;;1807794;78;21768;-74
2022/06/17 07:08:35;;;;;;;6.58;3.65;;;34.10;74.70;;;;;;1793467;78;21598;-74
2022/06/17 07:11:08;;;;;;;5.25;3.10;;;34.10;73.90;;;;;;1772610;80;21604;-75
2022/06/17 07:13:41;;;;;;;4.50;3.30;;;34.20;73.90;;;;;;1806528;78;21673;-74
2022/06/17 07:16:14;;;;;;;4.97;3.50;;;34.30;74.40;;;;;;1804167;77;21128;-75
2022/06/17 07:18:45;;;;;;;5.60;3.42;;;34.30;73.40;;;;;;1812562;78;21626;-72
2022/06/17 07:21:16;;;;;;;5.83;3.90;;;34.40;73.60;;;;;;1784171;79;21910;-73
2022/06/17 07:23:48;;;;;;;5.58;3.92;;;34.40;72.90;;;;;;1765218;80;21188;-73
2022/06/17 07:26:21;;;;;;;8.45;4.20;;;34.50;73.70;;;;;;1757582;81;21141;-73
2022/06/17 07:28:54;;;;;;;6.15;4.22;;;34.50;74.20;;;;;;1729126;81;21231;-74
2022/06/17 07:31:25;;;;;;;5.22;4.15;;;34.40;74.80;;;;;;1718703;82;21149;-73
2022/06/17 07:33:57;;;;;;;6.50;4.05;;;34.40;75.10;;;;;;1791031;79;21183;-73
2022/06/17 07:41:32;;;;;;;5.90;4.30;;;34.40;74.90;;;;;;1814700;78;21167;-73
2022/06/17 07:44:04;;;;;;;5.33;3.92;;;34.30;72.70;;;;;;1807761;77;21120;-71
2022/06/17 07:46:36;;;;;;;6.42;3.92;;;34.30;73.70;;;;;;1797265;78;21312;-73
2022/06/17 07:49:07;;;;;;;6.97;4.80;;;34.20;74.10;;;;;;1793759;78;21180;-71
2022/06/17 07:51:38;;;;;;;7.60;4.78;;;34.30;74.20;;;;;;1784967;78;21207;-73
2022/06/17 07:54:09;;;;;;;6.25;4.55;;;34.30;75.10;;;;;;1813743;77;21185;-73
2022/06/17 07:56:40;;;;;;;7.05;5.20;;;34.30;73.70;;;;;;1820894;78;21227;-72
2022/06/17 07:59:11;;;;;;;6.15;5.05;;;34.30;74.50;;;;;;1810773;78;21153;-73
2022/06/17 08:01:42;;;;;;;5.90;4.78;;;34.30;73.80;;;;;;1808062;78;21108;-72
2022/06/17 08:04:13;;;;;;;7.60;5.10;;;34.20;74.70;;;;;;1808880;78;21231;-74
2022/06/17 08:06:49;;;;;;;5.65;4.65;;;34.20;76.00;;;;;;1810888;78;21687;-72
2022/06/17 08:09:18;;;;;;;6.92;5.40;;;34.20;74.20;;;;;;1812727;78;21723;-72
2022/06/17 08:11:50;;;;;;;7.85;5.85;;;34.20;75.20;;;;;;1800051;78;21175;-73
2022/06/17 08:14:21;;;;;;;8.13;6.15;;;34.30;74.70;;;;;;1817246;78;21152;-72
2022/06/17 08:16:53;;;;;;;11.18;6.25;;;34.30;75.30;;;;;;1808393;78;21228;-73
2022/06/17 08:19:23;;;;;;;7.20;5.75;;;34.30;75.00;;;;;;1805086;78;21105;-73
2022/06/17 08:21:54;;;;;;;8.88;6.00;;;34.30;74.70;;;;;;1811606;78;21247;-73
2022/06/17 08:24:27;;;;;;;9.93;7.00;;;34.30;74.40;;;;;;1809359;78;21275;-73
2022/06/17 08:26:58;;;;;;;9.50;6.85;;;34.10;75.10;;;;;;1801625;78;21224;-71
2022/06/17 08:29:29;;;;;;;9.10;6.62;;;34.10;76.30;;;;;;1812784;78;21137;-72
2022/06/17 08:34:34;;;;;;;9.60;6.72;;;33.90;75.30;;;;;;1805507;78;21156;-73
2022/06/17 08:37:04;;;;;;;7.78;6.97;;;33.80;76.60;;;;;;1820349;78;21189;-72
2022/06/17 08:39:36;;;;;;;8.48;7.05;;;33.70;77.60;;;;;;1816032;78;22072;-73
2022/06/17 08:42:09;;;;;;;7.53;6.58;;;33.70;77.90;;;;;;1826664;78;21198;-72
2022/06/17 08:44:43;;;;;;;12.37;6.65;;;33.80;77.60;;;;;;1823799;78;21208;-72
2022/06/17 08:47:17;;;;;;;7.35;6.60;;;33.80;77.50;;;;;;1821143;78;21669;-72
2022/06/17 08:49:52;;;;;;;7.17;6.03;;;33.80;77.60;;;;;;1800026;78;21188;-72
2022/06/17 08:52:25;;;;;;;6.95;5.92;;;33.80;76.60;;;;;;1808612;78;21196;-72
2022/06/17 08:54:59;;;;;;;8.55;6.40;;;33.80;76.60;;;;;;1812007;78;21116;-73
2022/06/17 08:57:32;;;;;;;9.58;5.85;;;33.70;77.40;;;;;;1809145;78;21106;-72
2022/06/17 09:00:06;;;;;;;7.45;6.30;;;33.70;78.20;;;;;;1808025;78;21670;-73
2022/06/17 09:02:39;;;;;;;10.03;3.80;;;33.60;78.60;;;;;;1790470;78;21852;-73
2022/06/17 09:05:12;;;;;;;6.20;3.20;;;33.50;75.50;;;;;;1809701;78;21222;-73
2022/06/17 09:07:46;;;;;;;11.83;3.50;;;33.10;75.70;;;;;;1801588;78;21149;-71
2022/06/17 09:10:19;;;;;;;15.05;4.75;;;32.60;77.20;;;;;;1774830;80;21231;-70
2022/06/17 09:12:52;;;;;;;12.60;3.55;;;32.00;78.80;;;;;;1754490;80;21147;-72
2022/06/17 09:15:25;;;;;;;9.20;3.25;;;31.30;80.20;;;;;;1749305;80;21155;-71
2022/06/17 09:17:59;;;;;;;7.85;3.22;;;30.60;83.10;;;;;;1750329;80;21564;-72
2022/06/17 09:20:33;;;;;;;8.43;3.72;;;30.00;88.30;;;;;;1809730;77;21857;-74
2022/06/17 09:23:07;;;;;;;7.42;3.30;;;29.50;91.40;;;;;;1809561;78;21667;-70
2022/06/17 09:25:41;;;;;;;6.85;3.60;;;28.90;93.00;;;;;;1764572;80;21205;-72
2022/06/17 09:28:14;;;;;;;10.13;4.42;;;28.30;94.50;;;;;;1747862;80;21159;-73
2022/06/17 09:30:47;;;;;;;12.05;4.92;;;27.90;95.90;;;;;;1799838;78;21724;-72
2022/06/17 09:33:21;;;;;;;15.58;6.05;;;27.50;97.00;;;;;;1804647;78;21145;-73
2022/06/17 09:35:54;;;;;;;9.10;4.67;;;27.30;98.10;;;;;;1809177;78;21224;-72
2022/06/17 09:38:30;;;;;;;11.90;4.83;;;27.20;98.30;;;;;;1797894;78;21201;-75
2022/06/17 09:41:03;;;;;;;9.85;4.45;;;27.20;98.50;;;;;;1801619;78;21255;-73
2022/06/17 09:43:37;;;;;;;7.95;4.30;;;27.20;98.60;;;;;;1802192;78;21223;-72
2022/06/17 09:46:11;;;;;;;4.95;3.17;;;27.30;97.70;;;;;;1806018;78;21129;-83
2022/06/17 09:48:44;;;;;;;6.40;3.62;;;27.40;96.20;;;;;;1809637;78;21656;-82
2022/06/17 09:51:18;;;;;;;5.50;3.30;;;27.50;97.00;;;;;;1798775;78;21171;-84
2022/06/17 09:53:57;;;;;;;6.15;3.70;;;27.50;96.10;;;;;;1810291;78;21617;-83
2022/06/17 09:56:30;;;;;;;7.08;3.67;;;27.40;97.00;;;;;;1804576;78;21223;-83
2022/06/17 09:59:03;;;;;;;8.38;4.00;;;27.30;97.70;;;;;;1810854;78;21220;-82
2022/06/17 10:01:35;;;;;;;7.10;3.98;;;27.20;98.70;;;;;;1808772;78;21114;-83
2022/06/17 10:04:10;;;;;;;6.40;4.30;;;27.20;99.00;;;;;;1802059;78;21149;-81
2022/06/17 10:06:47;;;;;;;7.97;4.33;;;27.30;99.00;;;;;;1765793;81;21107;-82
2022/06/17 10:09:23;;;;;;;9.10;4.43;;;27.50;98.70;;;;;;1813373;78;21246;-83
2022/06/17 10:11:58;;;;;;;6.90;4.65;;;27.60;98.90;;;;;;1806278;78;21137;-83
2022/06/17 10:14:31;;;;;;;6.95;4.15;;;27.70;98.80;;;;;;1809736;78;21249;-83
2022/06/17 10:19:49;;;;;;;5.78;4.35;;;27.90;98.60;;;;;;1798583;78;21171;-83
2022/06/17 10:22:18;;;;;;;7.03;4.10;;;27.90;98.40;;;;;;1804925;78;21754;-84
2022/06/17 10:24:51;;;;;;;6.85;4.15;;;28.00;98.10;;;;;;1777709;79;21171;-83
2022/06/17 10:27:27;;;;;;;10.08;4.90;;;28.00;98.10;;;;;;1748673;81;21147;-82
2022/06/17 10:30:01;;;;;;;7.65;4.37;;;28.10;98.20;;;;;;1812258;78;21103;-81
2022/06/17 10:32:43;;;;;;;6.42;4.33;;;28.20;98.60;;;;;;1818890;78;21169;-81
2022/06/17 10:35:17;;;;;;;6.75;4.28;;;28.30;98.60;;;;;;1809771;78;21178;-81
2022/06/17 10:37:49;;;;;;;11.90;4.72;;;28.30;98.20;;;;;;1822447;78;21172;-82
2022/06/17 10:40:23;;;;;;;7.00;4.50;;;28.30;98.00;;;;;;1826604;78;21151;-82
2022/06/17 10:42:57;;;;;;;6.28;3.80;;;28.40;97.70;;;;;;1831510;78;21137;-81
2022/06/17 10:45:28;;;;;;;5.95;3.65;;;28.40;97.20;;;;;;1818607;78;21125;-81
2022/06/17 10:48:01;;;;;;;7.10;3.60;;;28.40;96.30;;;;;;1816950;78;21112;-80
2022/06/17 10:50:33;;;;;;;4.90;3.65;;;28.50;96.00;;;;;;1823916;78;21140;-81
2022/06/17 10:53:11;;;;;;;5.22;3.58;;;28.50;96.20;;;;;;1809171;78;21159;-85
2022/06/17 10:55:42;;;;;;;3.80;2.83;;;28.50;95.80;;;;;;1809692;77;21201;-85
2022/06/17 10:58:34;;;;;;;8.10;3.47;;;28.50;95.80;;;;;;1812134;78;21141;-83
2022/06/17 11:01:08;;;;;;;4.87;2.87;;;28.50;95.40;;;;;;1810341;78;21721;-82
2022/06/17 11:03:41;;;;;;;5.70;2.92;;;28.50;95.70;;;;;;1804909;78;21289;-83
2022/06/17 11:06:15;;;;;;;8.53;3.30;;;28.50;95.90;;;;;;1798696;78;21297;-83
2022/06/17 11:08:48;;;;;;;4.72;3.10;;;28.60;95.40;;;;;;1810376;78;21307;-83
2022/06/17 11:13:55;;;;;;;7.85;3.25;;;28.50;95.50;;;;;;1808669;78;21159;-82
2022/06/17 11:16:28;;;;;;;7.00;3.20;;;28.50;95.80;;;;;;1813293;78;21200;-82
2022/06/17 11:19:02;;;;;;;6.97;3.22;;;28.40;96.00;;;;;;1802734;78;21626;-82
2022/06/17 11:21:35;;;;;;;11.63;3.95;;;28.40;96.00;;;;;;1818017;78;21094;-81
2022/06/17 11:24:07;;;;;;;10.70;4.20;;;28.40;96.20;;;;;;1820234;78;21092;-82
2022/06/17 11:26:38;;;;;;;6.62;3.67;;;28.40;96.20;;;;;;1815481;78;21211;-82
2022/06/17 11:29:11;;;;;;;6.12;3.80;;;28.40;96.40;;;;;;1808467;78;21089;-81
2022/06/17 11:31:45;;;;;;;7.90;4.08;;;28.30;96.10;;;;;;1797938;78;21165;-81
2022/06/17 11:34:17;;;;;;;6.87;4.28;;;28.30;96.40;;;;;;1820605;78;21130;-82
2022/06/17 11:36:50;;;;;;;8.73;3.98;;;28.30;96.10;;;;;;1807522;77;21156;-81
2022/06/17 11:39:24;;;;;;;12.75;4.20;;;28.30;96.20;;;;;;1814827;75;21138;-82
2022/06/17 11:41:58;;;;;;;9.33;4.58;;;28.30;96.30;;;;;;1806771;77;21937;-83
2022/06/17 11:44:32;;;;;;;8.20;4.12;;;28.20;96.70;;;;;;1812630;77;21125;-82
2022/06/17 11:47:07;;;;;;;6.25;3.92;;;28.20;96.90;;;;;;1811270;78;21144;-82
2022/06/17 11:49:39;;;;;;;9.48;4.55;;;28.20;96.90;;;;;;1798805;77;21121;-83
2022/06/17 11:52:21;;;;;;;11.93;5.03;;;28.20;97.10;;;;;;1733153;79;21205;-81
2022/06/17 11:54:54;;;;;;;9.03;5.12;;;28.10;97.30;;;;;;1745970;80;21182;-81
2022/06/17 11:57:29;;;;;;;10.58;4.33;;;28.10;97.20;;;;;;1788912;79;21229;-82
2022/06/17 12:00:04;;;;;;;9.35;4.22;;;28.10;97.00;;;;;;1833296;77;21155;-81
2022/06/17 12:02:34;;;;;;;9.18;4.12;;;28.10;97.00;;;;;;1827105;77;21136;-82
2022/06/17 12:05:08;;;;;;;8.33;3.62;;;28.10;97.60;;;;;;1788336;79;21170;-80
2022/06/17 12:07:44;;;;;;;7.67;4.25;;;28.10;97.60;;;;;;1793105;79;21172;-82
2022/06/17 12:10:18;;;;;;;10.38;4.70;;;28.20;97.40;;;;;;1785377;79;21167;-82
2022/06/17 12:12:51;;;;;;;10.82;5.03;;;28.20;97.70;;;;;;1767023;80;21268;-82
2022/06/17 12:15:24;;;;;;;13.48;5.10;;;28.20;97.40;;;;;;1795914;79;21255;-82
2022/06/17 12:18:07;;;;;;;7.95;4.30;;;28.20;97.50;;;;;;1838066;77;21229;-82
2022/06/17 12:20:41;;;;;;;9.58;4.55;;;28.10;97.20;;;;;;1812969;77;21632;-80
2022/06/17 12:23:13;;;;;;;10.15;4.90;;;28.10;97.20;;;;;;1839347;77;21138;-82
2022/06/17 12:25:48;;;;;;;13.08;5.42;;;28.00;97.40;;;;;;1820501;78;21253;-81
2022/06/17 12:28:24;;;;;;;8.38;5.20;;;28.00;97.80;;;;;;1837750;77;21091;-82
2022/06/17 12:30:57;;;;;;;11.95;5.12;;;28.00;98.00;;;;;;1804968;77;21584;-82
2022/06/17 12:33:31;;;;;;;11.75;5.25;;;28.00;98.10;;;;;;1827160;77;21174;-82
2022/06/17 12:36:04;;;;;;;9.70;5.12;;;27.90;98.40;;;;;;1818186;77;21190;-82
2022/06/17 12:38:37;;;;;;;11.22;4.47;;;27.90;98.50;;;;;;1826507;77;21112;-82
2022/06/17 12:41:11;;;;;;;7.03;4.20;;;28.00;98.40;;;;;;1824533;77;21514;-82
2022/06/17 12:43:47;;;;;;;7.72;4.60;;;28.00;98.20;;;;;;1817748;79;21259;-82
2022/06/17 12:46:21;;;;;;;8.18;4.62;;;28.00;98.40;;;;;;1813428;77;21722;-82
2022/06/17 12:48:54;;;;;;;9.23;4.70;;;28.00;98.30;;;;;;1808599;79;21642;-82
2022/06/17 12:54:02;;;;;;;7.65;5.62;;;27.90;98.40;;;;;;1817169;77;21563;-82
2022/06/17 12:56:36;;;;;;;8.38;5.95;;;28.00;98.50;;;;;;1803091;78;21222;-81
2022/06/17 12:59:09;;;;;;;12.23;5.55;;;28.00;98.70;;;;;;1835111;76;21135;-80
2022/06/17 13:01:43;;;;;;;9.98;4.67;;;28.00;99.00;;;;;;1844445;77;21145;-82
2022/06/17 13:04:16;;;;;;;8.98;5.53;;;27.90;98.60;;;;;;1794917;77;21212;-81
2022/06/17 13:06:51;;;;;;;12.65;5.35;;;27.90;98.50;;;;;;1829786;78;21159;-81
2022/06/17 13:09:24;;;;;;;9.75;5.22;;;27.90;98.30;;;;;;1825786;76;21163;-81
2022/06/17 13:11:58;;;;;;;7.85;4.10;;;27.90;98.10;;;;;;1818818;77;21187;-82
2022/06/17 13:14:31;;;;;;;7.22;4.10;;;27.90;98.10;;;;;;1850292;77;21162;-83
2022/06/17 13:17:04;;;;;;;8.68;4.30;;;27.90;98.00;;;;;;1839548;77;21233;-82
2022/06/17 13:19:38;;;;;;;8.73;4.15;;;27.90;97.90;;;;;;1853341;77;21146;-82
2022/06/17 13:22:11;;;;;;;8.80;4.83;;;27.80;97.70;;;;;;1854115;77;21590;-82
2022/06/17 13:24:44;;;;;;;8.40;4.50;;;27.90;97.80;;;;;;1836169;76;21202;-81
2022/06/17 13:27:18;;;;;;;10.05;4.60;;;27.90;97.70;;;;;;1824813;77;21147;-81
2022/06/17 13:29:59;;;;;;;7.92;4.10;;;27.80;97.90;;;;;;1945442;73;22120;-82
2022/06/17 13:32:32;;;;;;;7.35;4.35;;;27.80;97.60;;;;;;1885235;74;21209;-81